createdAt,value
2023-03-27T00:00:16.332Z,0.70
2023-03-27T00:02:47.000Z,0.50
2023-03-27T00:05:16.237Z,0.70
2023-03-27T00:07:44.568Z,0.60
2023-03-27T00:10:13.046Z,0.70
2023-03-27T00:12:40.896Z,0.50
2023-03-27T00:15:09.758Z,0.50
2023-03-27T00:17:37.658Z,0.40
2023-03-27T00:20:07.649Z,0.60
2023-03-27T00:22:36.040Z,0.80
2023-03-27T00:25:05.184Z,0.80
2023-03-27T00:27:33.077Z,1.17
2023-03-27T00:30:00.953Z,1.30
2023-03-27T00:32:28.812Z,1.27
2023-03-27T00:34:56.627Z,1.10
2023-03-27T00:37:25.911Z,1.37
2023-03-27T00:39:54.110Z,1.20
2023-03-27T00:42:24.545Z,1.10
2023-03-27T00:44:53.942Z,1.50
2023-03-27T00:47:30.919Z,1.90
2023-03-27T00:50:00.306Z,2.63
2023-03-27T00:52:31.497Z,1.73
2023-03-27T00:55:03.833Z,1.40
2023-03-27T00:57:32.013Z,1.63
2023-03-27T01:00:01.063Z,1.40
2023-03-27T01:02:29.575Z,2.00
2023-03-27T01:04:58.308Z,1.40
2023-03-27T01:07:26.165Z,2.00
2023-03-27T01:09:56.387Z,3.40
2023-03-27T01:12:34.583Z,1.40
2023-03-27T01:15:15.379Z,1.90
2023-03-27T01:17:58.204Z,1.13
2023-03-27T01:21:06.553Z,1.07
2023-03-27T01:24:12.716Z,0.70
2023-03-27T01:27:05.369Z,0.87
2023-03-27T01:29:42.882Z,1.03
2023-03-27T01:33:02.476Z,0.73
2023-03-27T01:35:57.922Z,1.00
2023-03-27T01:39:07.328Z,1.30
2023-03-27T01:41:43.435Z,1.60
2023-03-27T01:44:16.719Z,1.37
2023-03-27T01:46:51.219Z,1.70
2023-03-27T01:49:24.986Z,1.50
2023-03-27T01:51:57.334Z,1.60
2023-03-27T01:54:29.095Z,3.03
2023-03-27T01:57:04.344Z,2.70
2023-03-27T01:59:38.592Z,4.03
2023-03-27T02:02:11.444Z,2.33
2023-03-27T02:04:46.860Z,3.50
2023-03-27T02:07:19.724Z,2.90
2023-03-27T02:09:50.857Z,2.60
2023-03-27T02:12:23.476Z,2.83
2023-03-27T02:14:55.408Z,3.27
2023-03-27T02:17:26.421Z,3.23
2023-03-27T02:19:59.113Z,2.53
2023-03-27T02:22:38.509Z,2.90
2023-03-27T02:25:27.463Z,2.87
2023-03-27T02:28:09.774Z,3.30
2023-03-27T02:30:43.348Z,2.97
2023-03-27T02:33:19.027Z,2.60
2023-03-27T02:35:55.268Z,3.23
2023-03-27T02:38:32.910Z,2.70
2023-03-27T02:41:10.156Z,2.73
2023-03-27T02:43:46.789Z,3.10
2023-03-27T02:46:18.799Z,3.07
2023-03-27T02:48:49.988Z,2.67
2023-03-27T02:51:23.955Z,3.90
2023-03-27T02:53:57.596Z,3.10
2023-03-27T02:56:28.322Z,3.30
2023-03-27T02:59:01.316Z,3.43
2023-03-27T03:01:30.750Z,3.33
2023-03-27T03:04:01.157Z,3.03
2023-03-27T03:06:30.646Z,2.70
2023-03-27T03:09:02.848Z,2.83
2023-03-27T03:11:31.270Z,2.60
2023-03-27T03:14:00.661Z,3.27
2023-03-27T03:16:29.668Z,2.90
2023-03-27T03:18:57.831Z,2.50
2023-03-27T03:21:25.687Z,3.10
2023-03-27T03:23:57.614Z,3.73
2023-03-27T03:26:27.053Z,4.03
2023-03-27T03:29:01.347Z,2.73
2023-03-27T03:31:44.523Z,2.63
2023-03-27T03:34:13.483Z,2.97
2023-03-27T03:36:42.973Z,2.67
2023-03-27T03:39:12.604Z,2.40
2023-03-27T03:41:40.840Z,3.97
2023-03-27T03:44:09.971Z,2.60
2023-03-27T03:46:39.966Z,2.57
2023-03-27T03:49:07.975Z,3.23
2023-03-27T03:51:36.863Z,2.90
2023-03-27T03:54:06.670Z,2.23
2023-03-27T03:56:34.745Z,2.77
2023-03-27T03:59:02.886Z,2.70
2023-03-27T04:01:30.839Z,2.50
2023-03-27T04:04:00.304Z,2.83
2023-03-27T04:06:30.891Z,4.17
2023-03-27T04:08:59.138Z,2.53
2023-03-27T04:11:26.984Z,3.10
2023-03-27T04:13:54.818Z,3.27
2023-03-27T04:16:22.754Z,4.17
2023-03-27T04:18:54.391Z,3.30
2023-03-27T04:21:26.550Z,2.87
2023-03-27T04:23:54.417Z,2.87
2023-03-27T04:26:26.366Z,3.27
2023-03-27T04:28:54.721Z,2.67
2023-03-27T04:31:22.664Z,2.70
2023-03-27T04:33:52.337Z,2.70
2023-03-27T04:36:20.625Z,3.40
2023-03-27T04:38:50.096Z,4.20
2023-03-27T04:41:18.482Z,2.70
2023-03-27T04:43:46.349Z,3.00
2023-03-27T04:46:14.285Z,2.87
2023-03-27T04:48:42.609Z,3.27
2023-03-27T04:51:10.489Z,2.43
2023-03-27T04:53:42.871Z,2.63
2023-03-27T04:56:12.394Z,2.77
2023-03-27T04:58:41.373Z,2.60
2023-03-27T05:01:09.267Z,1.97
2023-03-27T05:03:37.188Z,2.20
2023-03-27T05:06:05.701Z,2.07
2023-03-27T05:08:33.807Z,1.70
2023-03-27T05:11:01.830Z,2.90
2023-03-27T05:13:31.097Z,1.33
2023-03-27T05:16:01.684Z,1.70
2023-03-27T05:18:30.988Z,1.77
2023-03-27T05:20:59.353Z,1.53
2023-03-27T05:23:27.379Z,0.90
2023-03-27T05:26:00.025Z,0.93
2023-03-27T05:28:30.566Z,1.90
2023-03-27T05:30:58.907Z,1.10
2023-03-27T05:33:26.970Z,0.70
2023-03-27T05:35:54.874Z,1.30
2023-03-27T05:38:24.617Z,1.10
2023-03-27T05:40:53.254Z,1.00
2023-03-27T05:43:21.314Z,0.80
2023-03-27T05:45:50.560Z,1.50
2023-03-27T05:48:18.468Z,0.87
2023-03-27T05:50:46.845Z,1.30
2023-03-27T05:53:15.663Z,1.07
2023-03-27T05:55:43.588Z,0.90
2023-03-27T05:58:13.227Z,0.80
2023-03-27T06:00:43.341Z,1.83
2023-03-27T06:03:14.485Z,1.17
2023-03-27T06:05:42.639Z,0.87
2023-03-27T06:08:11.649Z,1.53
2023-03-27T06:10:43.297Z,0.93
2023-03-27T06:13:13.626Z,0.93
2023-03-27T06:15:43.426Z,1.17
2023-03-27T06:18:12.828Z,1.40
2023-03-27T06:20:42.379Z,1.00
2023-03-27T06:23:10.269Z,1.00
2023-03-27T06:25:39.806Z,1.77
2023-03-27T06:28:09.489Z,1.07
2023-03-27T06:30:38.878Z,0.70
2023-03-27T06:33:08.704Z,0.90
2023-03-27T06:35:38.077Z,0.97
2023-03-27T06:38:06.523Z,0.70
2023-03-27T06:40:36.048Z,1.00
2023-03-27T06:43:05.806Z,1.00
2023-03-27T06:45:35.657Z,0.90
2023-03-27T06:48:15.427Z,1.03
2023-03-27T06:50:50.937Z,1.30
2023-03-27T06:55:51.326Z,1.03
2023-03-27T06:58:19.739Z,1.73
2023-03-27T07:00:49.600Z,1.00
2023-03-27T07:03:18.953Z,1.00
2023-03-27T07:05:48.989Z,1.10
2023-03-27T07:08:24.775Z,1.00
2023-03-27T07:11:09.831Z,1.00
2023-03-27T07:13:40.989Z,0.83
2023-03-27T07:16:10.286Z,1.10
2023-03-27T07:18:38.186Z,1.33
2023-03-27T07:21:07.697Z,1.30
2023-03-27T07:23:37.196Z,1.13
2023-03-27T07:26:05.409Z,1.40
2023-03-27T07:28:33.495Z,1.47
2023-03-27T07:31:01.949Z,1.10
2023-03-27T07:33:29.925Z,0.90
2023-03-27T07:35:58.041Z,1.37
2023-03-27T07:38:26.310Z,3.53
2023-03-27T07:40:55.523Z,1.20
2023-03-27T07:43:23.419Z,1.30
2023-03-27T07:45:51.514Z,1.83
2023-03-27T07:48:19.609Z,1.63
2023-03-27T07:50:47.769Z,2.07
2023-03-27T07:53:34.094Z,2.30
2023-03-27T07:56:03.955Z,1.23
2023-03-27T07:58:32.038Z,1.77
2023-03-27T08:01:02.461Z,1.63
2023-03-27T08:03:32.073Z,1.43
2023-03-27T08:06:01.479Z,0.83
2023-03-27T08:08:29.681Z,1.50
2023-03-27T08:10:58.346Z,1.53
2023-03-27T08:13:27.791Z,1.60
2023-03-27T08:16:04.200Z,1.73
2023-03-27T08:18:32.128Z,1.60
2023-03-27T08:21:01.940Z,2.10
2023-03-27T08:23:31.343Z,1.87
2023-03-27T08:26:00.639Z,1.63
2023-03-27T08:28:30.108Z,2.47
2023-03-27T08:31:02.906Z,3.60
2023-03-27T08:33:31.690Z,2.07
2023-03-27T08:35:59.815Z,1.40
2023-03-27T08:38:28.613Z,1.90
2023-03-27T08:40:59.151Z,1.93
2023-03-27T08:43:31.672Z,1.93
2023-03-27T08:46:02.958Z,1.63
2023-03-27T08:48:34.919Z,1.87
2023-03-27T08:51:06.407Z,1.63
2023-03-27T08:53:41.707Z,1.10
2023-03-27T08:56:14.137Z,1.53
2023-03-27T08:58:44.499Z,1.60
2023-03-27T09:01:22.041Z,1.80
2023-03-27T09:03:57.408Z,1.00
2023-03-27T09:06:28.605Z,1.13
2023-03-27T09:09:05.004Z,2.30
2023-03-27T09:11:42.445Z,2.37
2023-03-27T09:14:19.412Z,1.20
2023-03-27T09:16:49.995Z,1.83
2023-03-27T09:19:26.094Z,1.37
2023-03-27T09:21:58.039Z,1.40
2023-03-27T09:24:30.458Z,2.97
2023-03-27T09:27:07.133Z,1.70
2023-03-27T09:29:40.449Z,1.30
2023-03-27T09:32:14.705Z,2.10
2023-03-27T09:34:43.061Z,1.67
2023-03-27T09:37:12.978Z,1.87
2023-03-27T09:39:46.783Z,1.20
2023-03-27T09:42:19.335Z,1.63
2023-03-27T09:44:52.116Z,1.37
2023-03-27T09:47:26.448Z,1.40
2023-03-27T09:49:57.516Z,1.27
2023-03-27T09:52:36.894Z,1.40
2023-03-27T09:55:06.413Z,1.50
2023-03-27T09:57:37.428Z,2.57
2023-03-27T10:00:26.977Z,1.67
2023-03-27T10:03:01.813Z,1.60
2023-03-27T10:05:31.523Z,1.40
2023-03-27T10:08:00.949Z,1.00
2023-03-27T10:10:32.395Z,1.70
2023-03-27T10:13:03.389Z,1.77
2023-03-27T10:15:35.687Z,1.10
2023-03-27T10:18:09.567Z,1.40
2023-03-27T10:20:37.492Z,1.40
2023-03-27T10:23:10.113Z,1.80
2023-03-27T10:25:40.102Z,1.70
2023-03-27T10:28:18.544Z,1.33
2023-03-27T10:30:49.229Z,1.40
2023-03-27T10:33:30.758Z,1.47
2023-03-27T10:35:59.931Z,1.43
2023-03-27T10:38:28.686Z,1.90
2023-03-27T10:40:57.833Z,0.90
2023-03-27T10:43:31.532Z,1.70
2023-03-27T10:46:04.964Z,2.10
2023-03-27T10:48:42.796Z,2.80
2023-03-27T10:51:23.683Z,2.00
2023-03-27T10:53:57.141Z,1.70
2023-03-27T10:56:29.266Z,2.50
2023-03-27T10:59:01.785Z,1.67
2023-03-27T11:01:36.193Z,2.90
2023-03-27T11:04:09.822Z,3.53
2023-03-27T11:06:42.312Z,2.20
2023-03-27T11:09:17.205Z,2.30
2023-03-27T11:11:50.325Z,2.33
2023-03-27T11:14:21.812Z,1.00
2023-03-27T11:16:55.470Z,1.73
2023-03-27T11:19:33.831Z,1.40
2023-03-27T11:22:06.876Z,1.43
2023-03-27T11:24:39.366Z,4.10
2023-03-27T11:27:14.718Z,7.40
2023-03-27T11:29:48.199Z,1.73
2023-03-27T11:32:28.390Z,0.77
2023-03-27T11:35:04.212Z,4.00
2023-03-27T11:37:41.103Z,3.30
2023-03-27T11:40:14.660Z,4.90
2023-03-27T11:42:44.872Z,3.70
2023-03-27T11:45:14.068Z,4.40
2023-03-27T11:47:57.243Z,3.20
2023-03-27T11:50:33.773Z,2.60
2023-03-27T11:53:30.402Z,2.10
2023-03-27T11:56:16.814Z,1.80
2023-03-27T11:58:56.615Z,1.70
2023-03-27T12:01:28.009Z,1.20
2023-03-27T12:04:15.589Z,1.10
2023-03-27T12:06:51.034Z,1.10
2023-03-27T12:09:41.471Z,1.40
2023-03-27T12:12:28.175Z,0.93
2023-03-27T12:15:07.055Z,0.97
2023-03-27T12:17:48.142Z,0.97
2023-03-27T12:20:52.782Z,1.10
2023-03-27T12:23:41.519Z,0.93
2023-03-27T12:26:21.339Z,1.30
2023-03-27T12:29:00.657Z,1.60
2023-03-27T12:31:53.776Z,1.57
2023-03-27T12:34:41.438Z,2.27
2023-03-27T12:37:12.529Z,1.63
2023-03-27T12:39:51.902Z,1.60
2023-03-27T12:42:44.963Z,1.30
2023-03-27T12:45:18.251Z,1.70
2023-03-27T12:47:47.112Z,1.70
2023-03-27T12:50:21.358Z,1.60
2023-03-27T12:52:53.225Z,1.90
2023-03-27T12:55:36.057Z,1.37
2023-03-27T12:58:06.192Z,1.80
2023-03-27T13:00:34.363Z,1.60
2023-03-27T13:03:26.071Z,1.80
2023-03-27T13:06:22.627Z,1.80
2023-03-27T13:09:19.518Z,2.63
2023-03-27T13:12:08.353Z,1.83
2023-03-27T13:14:53.284Z,1.67
2023-03-27T13:17:46.446Z,1.67
2023-03-27T13:20:24.204Z,1.30
2023-03-27T13:23:06.787Z,1.27
2023-03-27T13:25:54.788Z,1.60
2023-03-27T13:28:32.446Z,1.00
2023-03-27T13:31:01.825Z,1.13
2023-03-27T13:33:43.621Z,1.60
2023-03-27T13:36:19.350Z,1.80
2023-03-27T13:39:15.012Z,1.03
2023-03-27T13:42:02.577Z,1.03
2023-03-27T13:44:41.900Z,2.60
2023-03-27T13:47:29.934Z,1.10
2023-03-27T13:50:16.678Z,1.10
2023-03-27T13:53:13.271Z,1.07
2023-03-27T13:56:03.195Z,1.20
2023-03-27T13:59:15.333Z,1.30
2023-03-27T14:01:55.819Z,1.07
2023-03-27T14:04:45.885Z,1.00
2023-03-27T14:07:46.562Z,1.00
2023-03-27T14:10:42.085Z,0.67
2023-03-27T14:13:26.643Z,0.70
2023-03-27T14:16:17.437Z,0.93
2023-03-27T14:19:10.422Z,1.00
2023-03-27T14:21:52.323Z,0.70
2023-03-27T14:24:30.438Z,1.10
2023-03-27T14:26:59.607Z,1.40
2023-03-27T14:29:28.896Z,1.67
2023-03-27T14:32:05.850Z,1.30
2023-03-27T14:34:43.766Z,1.20
2023-03-27T14:37:29.029Z,2.20
2023-03-27T14:39:57.605Z,1.57
2023-03-27T14:42:32.005Z,2.23
2023-03-27T14:45:17.996Z,0.90
2023-03-27T14:47:50.672Z,2.10
2023-03-27T14:50:19.335Z,0.90
2023-03-27T14:52:52.535Z,1.20
2023-03-27T14:55:22.123Z,2.13
2023-03-27T14:57:51.028Z,1.67
2023-03-27T15:00:23.517Z,2.20
2023-03-27T15:02:55.461Z,1.70
2023-03-27T15:05:23.595Z,0.90
2023-03-27T15:07:52.044Z,4.00
2023-03-27T15:10:26.222Z,2.87
2023-03-27T15:12:56.061Z,2.40
2023-03-27T15:15:27.622Z,1.63
2023-03-27T15:17:59.779Z,0.90
2023-03-27T15:20:31.822Z,1.07
2023-03-27T15:23:03.633Z,1.70
2023-03-27T15:25:37.315Z,1.20
2023-03-27T15:28:12.819Z,1.23
2023-03-27T15:30:45.854Z,1.73
2023-03-27T15:33:20.345Z,2.27
2023-03-27T15:35:51.614Z,1.87
2023-03-27T15:38:26.394Z,2.10
2023-03-27T15:41:02.757Z,1.40
2023-03-27T15:43:31.545Z,1.90
2023-03-27T15:46:12.848Z,1.30
2023-03-27T15:48:45.301Z,2.27
2023-03-27T15:51:27.864Z,1.30
2023-03-27T15:53:56.717Z,1.03
2023-03-27T15:56:27.175Z,0.80
2023-03-27T15:58:58.317Z,1.17
2023-03-27T16:01:30.004Z,2.73
2023-03-27T16:04:04.559Z,2.80
2023-03-27T16:06:36.651Z,1.77
2023-03-27T16:09:05.895Z,1.43
2023-03-27T16:11:42.760Z,1.07
2023-03-27T16:14:22.790Z,1.20
2023-03-27T16:17:09.181Z,1.17
2023-03-27T16:19:45.029Z,1.03
2023-03-27T16:22:13.231Z,1.00
2023-03-27T16:24:41.403Z,1.00
2023-03-27T16:27:11.102Z,1.00
2023-03-27T16:29:38.985Z,1.10
2023-03-27T16:32:06.913Z,0.60
2023-03-27T16:34:34.972Z,1.20
2023-03-27T16:37:04.392Z,1.57
2023-03-27T16:39:32.383Z,1.00
2023-03-27T16:42:00.325Z,0.90
2023-03-27T16:44:28.198Z,2.07
2023-03-27T16:46:56.357Z,1.80
2023-03-27T16:49:24.200Z,1.20
2023-03-27T16:51:52.057Z,1.10
2023-03-27T16:54:21.260Z,0.90
2023-03-27T16:56:49.137Z,0.70
2023-03-27T16:59:17.182Z,0.70
2023-03-27T17:01:45.118Z,0.90
2023-03-27T17:04:13.449Z,0.90
2023-03-27T17:06:41.714Z,2.17
2023-03-27T17:09:11.101Z,2.17
2023-03-27T17:11:40.600Z,1.30
2023-03-27T17:14:08.447Z,0.70
2023-03-27T17:16:36.383Z,0.80
2023-03-27T17:19:04.256Z,1.00
2023-03-27T17:21:32.197Z,0.87
2023-03-27T17:24:01.041Z,0.80
2023-03-27T17:26:30.998Z,0.60
2023-03-27T17:29:00.447Z,0.77
2023-03-27T17:31:30.675Z,1.00
2023-03-27T17:33:58.824Z,0.87
2023-03-27T17:36:39.655Z,0.80
2023-03-27T17:39:10.966Z,0.80
2023-03-27T17:41:38.825Z,0.87
2023-03-27T17:44:08.393Z,0.90
2023-03-27T17:46:36.280Z,0.73
2023-03-27T17:49:04.233Z,0.87
2023-03-27T17:51:32.083Z,0.73
2023-03-27T17:54:00.183Z,0.80
2023-03-27T17:56:28.069Z,1.57
2023-03-27T17:58:55.941Z,1.10
2023-03-27T18:01:25.719Z,1.17
2023-03-27T18:03:55.164Z,0.90
2023-03-27T18:06:23.145Z,0.80
2023-03-27T18:08:51.002Z,1.30
2023-03-27T18:11:18.999Z,1.33
2023-03-27T18:13:51.334Z,0.80
2023-03-27T18:16:20.001Z,1.00
2023-03-27T18:18:50.966Z,1.33
2023-03-27T18:21:18.896Z,1.10
2023-03-27T18:23:46.933Z,0.90
2023-03-27T18:26:15.898Z,1.30
2023-03-27T18:28:43.936Z,1.47
2023-03-27T18:31:13.476Z,1.00
2023-03-27T18:33:41.420Z,1.33
2023-03-27T18:36:11.992Z,1.00
2023-03-27T18:38:40.837Z,1.03
2023-03-27T18:41:08.951Z,1.00
2023-03-27T18:43:37.193Z,1.47
2023-03-27T18:46:07.151Z,1.20
2023-03-27T18:48:36.270Z,1.17
2023-03-27T18:51:06.318Z,1.07
2023-03-27T18:53:35.985Z,1.00
2023-03-27T18:56:04.435Z,1.30
2023-03-27T18:58:32.548Z,1.27
2023-03-27T19:01:00.817Z,0.67
2023-03-27T19:03:30.344Z,0.77
2023-03-27T19:06:02.195Z,1.07
2023-03-27T19:08:30.307Z,0.73
2023-03-27T19:10:59.744Z,0.80
2023-03-27T19:13:27.895Z,0.70
2023-03-27T19:15:55.736Z,1.13
2023-03-27T19:18:25.524Z,1.10
2023-03-27T19:20:53.380Z,0.93
2023-03-27T19:23:21.210Z,1.70
2023-03-27T19:25:49.575Z,1.00
2023-03-27T19:28:18.898Z,1.07
2023-03-27T19:30:46.979Z,0.63
2023-03-27T19:33:14.867Z,0.80
2023-03-27T19:35:42.794Z,0.70
2023-03-27T19:38:10.658Z,1.10
2023-03-27T19:40:38.535Z,0.70
2023-03-27T19:43:06.386Z,0.57
2023-03-27T19:45:35.587Z,0.70
2023-03-27T19:48:03.451Z,0.50
2023-03-27T19:50:31.753Z,0.70
2023-03-27T19:53:08.217Z,1.10
2023-03-27T19:55:36.733Z,0.80
2023-03-27T19:58:04.593Z,0.90
2023-03-27T20:00:32.648Z,0.90
2023-03-27T20:03:02.224Z,1.10
2023-03-27T20:05:30.382Z,1.20
2023-03-27T20:07:58.250Z,0.60
2023-03-27T20:10:27.121Z,1.63
2023-03-27T20:12:55.092Z,0.87
2023-03-27T20:15:23.033Z,1.27
2023-03-27T20:17:51.032Z,0.80
2023-03-27T20:20:20.395Z,1.37
2023-03-27T20:22:57.117Z,0.80
2023-03-27T20:25:28.316Z,0.87
2023-03-27T20:27:56.361Z,1.47
2023-03-27T20:30:24.243Z,1.50
2023-03-27T20:32:52.662Z,1.50
2023-03-27T20:35:24.795Z,1.37
2023-03-27T20:37:57.691Z,1.60
2023-03-27T20:40:26.434Z,2.33
2023-03-27T20:43:03.035Z,1.50
2023-03-27T20:45:31.498Z,1.40
2023-03-27T20:48:04.154Z,1.50
2023-03-27T20:50:35.294Z,1.10
2023-03-27T20:53:04.372Z,1.03
2023-03-27T20:55:34.682Z,0.93
2023-03-27T20:58:07.123Z,1.07
2023-03-27T21:00:35.134Z,0.93
2023-03-27T21:03:03.151Z,0.90
2023-03-27T21:05:32.647Z,1.07
2023-03-27T21:08:01.836Z,0.97
2023-03-27T21:10:29.721Z,1.03
2023-03-27T21:12:57.564Z,0.80
2023-03-27T21:15:25.675Z,1.13
2023-03-27T21:17:53.629Z,0.83
2023-03-27T21:20:21.589Z,1.07
2023-03-27T21:22:52.676Z,1.00
2023-03-27T21:25:22.913Z,1.60
2023-03-27T21:27:51.055Z,1.17
2023-03-27T21:30:18.987Z,1.00
2023-03-27T21:32:49.056Z,1.27
2023-03-27T21:35:17.156Z,0.70
2023-03-27T21:37:45.370Z,1.83
2023-03-27T21:40:13.889Z,1.20
2023-03-27T21:42:43.083Z,1.17
2023-03-27T21:45:11.318Z,1.20
2023-03-27T21:47:47.295Z,0.73
2023-03-27T21:50:15.954Z,0.83
2023-03-27T21:52:43.843Z,0.90
2023-03-27T21:55:11.726Z,1.07
2023-03-27T21:57:39.615Z,1.10
2023-03-27T22:00:10.374Z,0.83
2023-03-27T22:02:38.392Z,0.80
2023-03-27T22:05:07.376Z,0.90
2023-03-27T22:07:35.282Z,0.90
2023-03-27T22:10:05.443Z,1.00
2023-03-27T22:12:34.974Z,1.03
2023-03-27T22:15:02.962Z,1.00
2023-03-27T22:17:32.478Z,0.80
2023-03-27T22:20:00.383Z,0.80
2023-03-27T22:22:28.324Z,0.93
2023-03-27T22:24:56.195Z,1.70
2023-03-27T22:27:24.058Z,1.30
2023-03-27T22:29:51.891Z,1.57
2023-03-27T22:32:19.766Z,1.23
2023-03-27T22:34:50.733Z,1.50
2023-03-27T22:37:19.569Z,1.40
2023-03-27T22:39:47.831Z,1.60
2023-03-27T22:42:15.976Z,0.97
2023-03-27T22:44:43.899Z,1.37
2023-03-27T22:47:11.781Z,1.60
2023-03-27T22:49:39.627Z,1.10
2023-03-27T22:52:08.917Z,1.40
2023-03-27T22:54:36.763Z,1.10
2023-03-27T22:57:04.685Z,1.20
2023-03-27T22:59:32.569Z,1.30
2023-03-27T23:02:00.487Z,1.40
2023-03-27T23:04:29.888Z,1.17
2023-03-27T23:06:57.753Z,1.50
2023-03-27T23:09:26.954Z,1.23
2023-03-27T23:11:54.793Z,1.40
2023-03-27T23:14:22.646Z,1.20
2023-03-27T23:16:50.652Z,1.10
2023-03-27T23:19:18.741Z,1.43
2023-03-27T23:21:46.554Z,1.10
2023-03-27T23:24:14.370Z,1.00
2023-03-27T23:26:43.572Z,1.40
2023-03-27T23:29:11.403Z,1.20
2023-03-27T23:31:39.268Z,1.30
2023-03-27T23:34:07.165Z,1.57
2023-03-27T23:36:35.026Z,1.60
2023-03-27T23:39:03.032Z,1.30
2023-03-27T23:41:31.108Z,1.20
2023-03-27T23:44:00.345Z,1.53
2023-03-27T23:46:28.234Z,1.53
2023-03-27T23:48:56.072Z,1.30
2023-03-27T23:51:23.965Z,1.43
2023-03-27T23:53:51.864Z,1.43
2023-03-27T23:56:19.755Z,1.60
2023-03-27T23:58:47.564Z,1.63
